sensor_id;sensor_type;location;lat;lon;timestamp;pressure;altitude;pressure_sealevel;temperature
60966;BMP180;46834;51.100;6.886;2023-02-11T00:00:30;103054.00;;;10.50
60966;BMP180;46834;51.100;6.886;2023-02-11T00:02:55;103045.00;;;10.40
60966;BMP180;46834;51.100;6.886;2023-02-11T00:05:21;103048.00;;;10.40
60966;BMP180;46834;51.100;6.886;2023-02-11T00:07:46;103044.00;;;10.40
60966;BMP180;46834;51.100;6.886;2023-02-11T00:10:12;103047.00;;;10.40
60966;BMP180;46834;51.100;6.886;2023-02-11T00:12:38;103034.00;;;10.40
60966;BMP180;46834;51.100;6.886;2023-02-11T00:15:06;103032.00;;;10.40
60966;BMP180;46834;51.100;6.886;2023-02-11T00:17:32;103026.00;;;10.40
60966;BMP180;46834;51.100;6.886;2023-02-11T00:19:58;103030.00;;;10.40
60966;BMP180;46834;51.100;6.886;2023-02-11T00:22:24;103025.00;;;10.40
60966;BMP180;46834;51.100;6.886;2023-02-11T00:24:49;103038.00;;;10.40
60966;BMP180;46834;51.100;6.886;2023-02-11T00:27:15;103037.00;;;10.40
60966;BMP180;46834;51.100;6.886;2023-02-11T00:29:41;103027.00;;;10.40
60966;BMP180;46834;51.100;6.886;2023-02-11T00:32:06;103033.00;;;10.40
60966;BMP180;46834;51.100;6.886;2023-02-11T00:34:34;103034.00;;;10.40
60966;BMP180;46834;51.100;6.886;2023-02-11T00:37:01;103024.00;;;10.30
60966;BMP180;46834;51.100;6.886;2023-02-11T00:39:26;103020.00;;;10.40
60966;BMP180;46834;51.100;6.886;2023-02-11T00:41:52;103014.00;;;10.40
60966;BMP180;46834;51.100;6.886;2023-02-11T00:44:18;103014.00;;;10.40
60966;BMP180;46834;51.100;6.886;2023-02-11T00:46:44;103000.00;;;10.40
60966;BMP180;46834;51.100;6.886;2023-02-11T00:49:10;103012.00;;;10.40
60966;BMP180;46834;51.100;6.886;2023-02-11T00:51:36;102999.00;;;10.40
60966;BMP180;46834;51.100;6.886;2023-02-11T00:54:01;102997.00;;;10.40
60966;BMP180;46834;51.100;6.886;2023-02-11T00:56:27;103006.00;;;10.40
60966;BMP180;46834;51.100;6.886;2023-02-11T00:58:53;103000.00;;;10.40
60966;BMP180;46834;51.100;6.886;2023-02-11T01:01:19;103001.00;;;10.40
60966;BMP180;46834;51.100;6.886;2023-02-11T01:03:45;103010.00;;;10.40
60966;BMP180;46834;51.100;6.886;2023-02-11T01:06:11;103001.00;;;10.40
60966;BMP180;46834;51.100;6.886;2023-02-11T01:08:38;103019.00;;;10.40
60966;BMP180;46834;51.100;6.886;2023-02-11T01:11:11;103007.00;;;10.30
60966;BMP180;46834;51.100;6.886;2023-02-11T01:13:37;103012.00;;;10.40
60966;BMP180;46834;51.100;6.886;2023-02-11T01:16:07;103003.00;;;10.30
60966;BMP180;46834;51.100;6.886;2023-02-11T01:18:33;103008.00;;;10.40
60966;BMP180;46834;51.100;6.886;2023-02-11T01:20:59;103008.00;;;10.40
60966;BMP180;46834;51.100;6.886;2023-02-11T01:23:25;103000.00;;;10.30
60966;BMP180;46834;51.100;6.886;2023-02-11T01:25:51;102993.00;;;10.30
60966;BMP180;46834;51.100;6.886;2023-02-11T01:28:20;102988.00;;;10.30
60966;BMP180;46834;51.100;6.886;2023-02-11T01:30:47;103002.00;;;10.30
60966;BMP180;46834;51.100;6.886;2023-02-11T01:33:13;103000.00;;;10.30
60966;BMP180;46834;51.100;6.886;2023-02-11T01:35:39;103005.00;;;10.30
60966;BMP180;46834;51.100;6.886;2023-02-11T01:38:06;103006.00;;;10.30
60966;BMP180;46834;51.100;6.886;2023-02-11T01:40:33;103025.00;;;10.30
60966;BMP180;46834;51.100;6.886;2023-02-11T01:42:58;103022.00;;;10.30
60966;BMP180;46834;51.100;6.886;2023-02-11T01:48:14;103035.00;;;10.20
60966;BMP180;46834;51.100;6.886;2023-02-11T01:50:43;103021.00;;;10.20
60966;BMP180;46834;51.100;6.886;2023-02-11T01:53:10;103023.00;;;10.20
60966;BMP180;46834;51.100;6.886;2023-02-11T01:55:56;103016.00;;;10.20
60966;BMP180;46834;51.100;6.886;2023-02-11T01:58:44;103022.00;;;10.20
60966;BMP180;46834;51.100;6.886;2023-02-11T02:01:18;103018.00;;;10.20
60966;BMP180;46834;51.100;6.886;2023-02-11T02:03:47;103019.00;;;10.20
60966;BMP180;46834;51.100;6.886;2023-02-11T02:06:30;103008.00;;;10.10
60966;BMP180;46834;51.100;6.886;2023-02-11T02:09:07;102995.00;;;10.10
60966;BMP180;46834;51.100;6.886;2023-02-11T02:11:34;102990.00;;;10.10
60966;BMP180;46834;51.100;6.886;2023-02-11T02:14:00;102998.00;;;10.10
60966;BMP180;46834;51.100;6.886;2023-02-11T02:16:35;102993.00;;;10.10
60966;BMP180;46834;51.100;6.886;2023-02-11T02:34:18;103000.00;;;10.00
60966;BMP180;46834;51.100;6.886;2023-02-11T02:36:58;102997.00;;;10.00
60966;BMP180;46834;51.100;6.886;2023-02-11T02:39:30;102993.00;;;10.00
60966;BMP180;46834;51.100;6.886;2023-02-11T02:41:58;102974.00;;;10.00
60966;BMP180;46834;51.100;6.886;2023-02-11T02:44:24;102968.00;;;10.10
60966;BMP180;46834;51.100;6.886;2023-02-11T02:46:50;102975.00;;;10.10
60966;BMP180;46834;51.100;6.886;2023-02-11T02:49:16;102976.00;;;10.10
60966;BMP180;46834;51.100;6.886;2023-02-11T02:52:15;102971.00;;;10.00
60966;BMP180;46834;51.100;6.886;2023-02-11T02:55:16;102961.00;;;10.00
60966;BMP180;46834;51.100;6.886;2023-02-11T02:58:08;102964.00;;;10.00
60966;BMP180;46834;51.100;6.886;2023-02-11T03:01:20;102957.00;;;10.00
60966;BMP180;46834;51.100;6.886;2023-02-11T03:04:19;102961.00;;;10.00
60966;BMP180;46834;51.100;6.886;2023-02-11T03:09:51;102961.00;;;10.00
60966;BMP180;46834;51.100;6.886;2023-02-11T03:12:20;102964.00;;;10.10
60966;BMP180;46834;51.100;6.886;2023-02-11T03:14:50;102966.00;;;10.10
60966;BMP180;46834;51.100;6.886;2023-02-11T03:17:17;102973.00;;;10.10
60966;BMP180;46834;51.100;6.886;2023-02-11T03:19:47;102967.00;;;10.10
60966;BMP180;46834;51.100;6.886;2023-02-11T03:22:24;102971.00;;;10.10
60966;BMP180;46834;51.100;6.886;2023-02-11T03:24:50;102968.00;;;10.10
60966;BMP180;46834;51.100;6.886;2023-02-11T03:27:53;102967.00;;;10.10
60966;BMP180;46834;51.100;6.886;2023-02-11T03:30:33;102950.00;;;10.10
60966;BMP180;46834;51.100;6.886;2023-02-11T03:33:16;102943.00;;;10.10
60966;BMP180;46834;51.100;6.886;2023-02-11T03:35:54;102942.00;;;10.10
60966;BMP180;46834;51.100;6.886;2023-02-11T03:38:29;102931.00;;;10.10
60966;BMP180;46834;51.100;6.886;2023-02-11T03:40:58;102927.00;;;10.10
60966;BMP180;46834;51.100;6.886;2023-02-11T03:43:41;102936.00;;;10.10
60966;BMP180;46834;51.100;6.886;2023-02-11T03:46:09;102920.00;;;10.10
60966;BMP180;46834;51.100;6.886;2023-02-11T03:48:41;102941.00;;;10.10
60966;BMP180;46834;51.100;6.886;2023-02-11T03:51:11;102941.00;;;10.10
60966;BMP180;46834;51.100;6.886;2023-02-11T03:53:40;102951.00;;;10.10
60966;BMP180;46834;51.100;6.886;2023-02-11T03:56:13;102950.00;;;10.10
60966;BMP180;46834;51.100;6.886;2023-02-11T03:58:39;102954.00;;;10.10
60966;BMP180;46834;51.100;6.886;2023-02-11T04:01:05;102965.00;;;10.20
60966;BMP180;46834;51.100;6.886;2023-02-11T04:03:34;102961.00;;;10.20
60966;BMP180;46834;51.100;6.886;2023-02-11T04:06:00;102964.00;;;10.20
60966;BMP180;46834;51.100;6.886;2023-02-11T04:08:25;102944.00;;;10.20
60966;BMP180;46834;51.100;6.886;2023-02-11T04:10:51;102952.00;;;10.20
60966;BMP180;46834;51.100;6.886;2023-02-11T04:13:17;102948.00;;;10.20
60966;BMP180;46834;51.100;6.886;2023-02-11T04:15:42;102939.00;;;10.20
60966;BMP180;46834;51.100;6.886;2023-02-11T04:18:08;102924.00;;;10.20
60966;BMP180;46834;51.100;6.886;2023-02-11T04:20:33;102932.00;;;10.20
60966;BMP180;46834;51.100;6.886;2023-02-11T04:22:59;102938.00;;;10.20
60966;BMP180;46834;51.100;6.886;2023-02-11T04:25:25;102926.00;;;10.20
60966;BMP180;46834;51.100;6.886;2023-02-11T04:27:51;102930.00;;;10.20
60966;BMP180;46834;51.100;6.886;2023-02-11T04:30:17;102937.00;;;10.20
60966;BMP180;46834;51.100;6.886;2023-02-11T04:32:43;102923.00;;;10.20
60966;BMP180;46834;51.100;6.886;2023-02-11T04:35:09;102928.00;;;10.20
60966;BMP180;46834;51.100;6.886;2023-02-11T04:37:34;102927.00;;;10.20
60966;BMP180;46834;51.100;6.886;2023-02-11T04:40:00;102928.00;;;10.20
60966;BMP180;46834;51.100;6.886;2023-02-11T04:42:26;102923.00;;;10.20
60966;BMP180;46834;51.100;6.886;2023-02-11T04:44:52;102915.00;;;10.20
60966;BMP180;46834;51.100;6.886;2023-02-11T04:47:18;102918.00;;;10.20
60966;BMP180;46834;51.100;6.886;2023-02-11T04:49:43;102930.00;;;10.20
60966;BMP180;46834;51.100;6.886;2023-02-11T04:52:09;102933.00;;;10.20
60966;BMP180;46834;51.100;6.886;2023-02-11T04:54:35;102932.00;;;10.20
60966;BMP180;46834;51.100;6.886;2023-02-11T04:57:00;102923.00;;;10.20
60966;BMP180;46834;51.100;6.886;2023-02-11T04:59:26;102933.00;;;10.20
60966;BMP180;46834;51.100;6.886;2023-02-11T05:01:52;102936.00;;;10.20
60966;BMP180;46834;51.100;6.886;2023-02-11T05:04:18;102934.00;;;10.20
60966;BMP180;46834;51.100;6.886;2023-02-11T05:06:43;102932.00;;;10.20
60966;BMP180;46834;51.100;6.886;2023-02-11T05:09:13;102933.00;;;10.10
60966;BMP180;46834;51.100;6.886;2023-02-11T05:11:39;102937.00;;;10.20
60966;BMP180;46834;51.100;6.886;2023-02-11T05:14:06;102923.00;;;10.20
60966;BMP180;46834;51.100;6.886;2023-02-11T05:16:32;102922.00;;;10.10
60966;BMP180;46834;51.100;6.886;2023-02-11T05:18:58;102934.00;;;10.10
60966;BMP180;46834;51.100;6.886;2023-02-11T05:21:24;102949.00;;;10.20
60966;BMP180;46834;51.100;6.886;2023-02-11T05:23:50;102932.00;;;10.20
60966;BMP180;46834;51.100;6.886;2023-02-11T05:26:16;102933.00;;;10.10
60966;BMP180;46834;51.100;6.886;2023-02-11T05:28:43;102920.00;;;10.10
60966;BMP180;46834;51.100;6.886;2023-02-11T05:31:10;102912.00;;;10.10
60966;BMP180;46834;51.100;6.886;2023-02-11T05:33:36;102910.00;;;10.10
60966;BMP180;46834;51.100;6.886;2023-02-11T05:36:07;102926.00;;;10.10
60966;BMP180;46834;51.100;6.886;2023-02-11T05:38:33;102918.00;;;10.10
60966;BMP180;46834;51.100;6.886;2023-02-11T05:41:00;102918.00;;;10.10
60966;BMP180;46834;51.100;6.886;2023-02-11T05:43:26;102930.00;;;10.10
60966;BMP180;46834;51.100;6.886;2023-02-11T05:45:52;102927.00;;;10.10
60966;BMP180;46834;51.100;6.886;2023-02-11T05:48:18;102932.00;;;10.10
60966;BMP180;46834;51.100;6.886;2023-02-11T05:50:44;102934.00;;;10.10
60966;BMP180;46834;51.100;6.886;2023-02-11T05:53:10;102930.00;;;10.10
60966;BMP180;46834;51.100;6.886;2023-02-11T05:55:36;102910.00;;;10.10
60966;BMP180;46834;51.100;6.886;2023-02-11T05:58:04;102913.00;;;10.10
60966;BMP180;46834;51.100;6.886;2023-02-11T06:00:29;102911.00;;;10.10
60966;BMP180;46834;51.100;6.886;2023-02-11T06:02:55;102901.00;;;10.10
60966;BMP180;46834;51.100;6.886;2023-02-11T06:05:21;102902.00;;;10.10
60966;BMP180;46834;51.100;6.886;2023-02-11T06:07:46;102908.00;;;10.10
60966;BMP180;46834;51.100;6.886;2023-02-11T06:10:12;102914.00;;;10.10
60966;BMP180;46834;51.100;6.886;2023-02-11T06:12:38;102908.00;;;10.10
60966;BMP180;46834;51.100;6.886;2023-02-11T06:15:05;102905.00;;;10.10
60966;BMP180;46834;51.100;6.886;2023-02-11T06:17:31;102911.00;;;10.10
60966;BMP180;46834;51.100;6.886;2023-02-11T06:20:02;102908.00;;;10.10
60966;BMP180;46834;51.100;6.886;2023-02-11T06:22:28;102906.00;;;10.10
60966;BMP180;46834;51.100;6.886;2023-02-11T06:24:54;102917.00;;;10.10
60966;BMP180;46834;51.100;6.886;2023-02-11T06:27:20;102911.00;;;10.10
60966;BMP180;46834;51.100;6.886;2023-02-11T06:29:46;102908.00;;;10.10
60966;BMP180;46834;51.100;6.886;2023-02-11T06:32:12;102909.00;;;10.10
60966;BMP180;46834;51.100;6.886;2023-02-11T06:34:38;102906.00;;;10.10
60966;BMP180;46834;51.100;6.886;2023-02-11T06:37:04;102908.00;;;10.10
60966;BMP180;46834;51.100;6.886;2023-02-11T06:39:30;102911.00;;;10.10
60966;BMP180;46834;51.100;6.886;2023-02-11T06:41:56;102919.00;;;10.10
60966;BMP180;46834;51.100;6.886;2023-02-11T06:44:21;102921.00;;;10.10
60966;BMP180;46834;51.100;6.886;2023-02-11T06:46:47;102923.00;;;10.10
60966;BMP180;46834;51.100;6.886;2023-02-11T06:49:13;102916.00;;;10.10
60966;BMP180;46834;51.100;6.886;2023-02-11T06:51:39;102922.00;;;10.10
60966;BMP180;46834;51.100;6.886;2023-02-11T06:54:06;102936.00;;;10.10
60966;BMP180;46834;51.100;6.886;2023-02-11T06:56:33;102929.00;;;10.10
60966;BMP180;46834;51.100;6.886;2023-02-11T06:58:58;102943.00;;;10.10
60966;BMP180;46834;51.100;6.886;2023-02-11T07:01:26;102940.00;;;10.10
60966;BMP180;46834;51.100;6.886;2023-02-11T07:03:53;102940.00;;;10.10
60966;BMP180;46834;51.100;6.886;2023-02-11T07:06:22;102941.00;;;10.10
60966;BMP180;46834;51.100;6.886;2023-02-11T07:08:49;102936.00;;;10.10
60966;BMP180;46834;51.100;6.886;2023-02-11T07:11:21;102941.00;;;10.10
60966;BMP180;46834;51.100;6.886;2023-02-11T07:13:50;102931.00;;;10.10
60966;BMP180;46834;51.100;6.886;2023-02-11T07:16:18;102933.00;;;10.10
60966;BMP180;46834;51.100;6.886;2023-02-11T07:18:45;102922.00;;;10.10
60966;BMP180;46834;51.100;6.886;2023-02-11T07:21:14;102927.00;;;10.10
60966;BMP180;46834;51.100;6.886;2023-02-11T07:23:40;102938.00;;;10.10
60966;BMP180;46834;51.100;6.886;2023-02-11T07:26:09;102943.00;;;10.10
60966;BMP180;46834;51.100;6.886;2023-02-11T07:28:39;102939.00;;;10.10
60966;BMP180;46834;51.100;6.886;2023-02-11T07:31:14;102944.00;;;10.10
60966;BMP180;46834;51.100;6.886;2023-02-11T07:33:40;102955.00;;;10.10
60966;BMP180;46834;51.100;6.886;2023-02-11T07:36:09;102956.00;;;10.10
60966;BMP180;46834;51.100;6.886;2023-02-11T07:38:35;102957.00;;;10.10
60966;BMP180;46834;51.100;6.886;2023-02-11T07:41:08;102948.00;;;10.10
60966;BMP180;46834;51.100;6.886;2023-02-11T07:43:36;102951.00;;;10.10
60966;BMP180;46834;51.100;6.886;2023-02-11T07:46:24;102958.00;;;10.00
60966;BMP180;46834;51.100;6.886;2023-02-11T07:48:51;102963.00;;;10.10
60966;BMP180;46834;51.100;6.886;2023-02-11T07:51:26;102962.00;;;10.10
60966;BMP180;46834;51.100;6.886;2023-02-11T07:53:54;102968.00;;;10.10
60966;BMP180;46834;51.100;6.886;2023-02-11T07:56:21;102963.00;;;10.10
60966;BMP180;46834;51.100;6.886;2023-02-11T07:58:48;102968.00;;;10.10
60966;BMP180;46834;51.100;6.886;2023-02-11T08:01:18;102978.00;;;10.10
60966;BMP180;46834;51.100;6.886;2023-02-11T08:03:47;102979.00;;;10.10
60966;BMP180;46834;51.100;6.886;2023-02-11T08:06:16;102965.00;;;10.10
60966;BMP180;46834;51.100;6.886;2023-02-11T08:08:43;102974.00;;;10.10
60966;BMP180;46834;51.100;6.886;2023-02-11T08:11:21;102972.00;;;10.10
60966;BMP180;46834;51.100;6.886;2023-02-11T08:13:47;102973.00;;;10.20
60966;BMP180;46834;51.100;6.886;2023-02-11T08:16:30;102963.00;;;10.10
60966;BMP180;46834;51.100;6.886;2023-02-11T08:19:00;102972.00;;;10.10
60966;BMP180;46834;51.100;6.886;2023-02-11T08:21:26;102981.00;;;10.10
60966;BMP180;46834;51.100;6.886;2023-02-11T08:23:53;102968.00;;;10.20
60966;BMP180;46834;51.100;6.886;2023-02-11T08:26:22;102972.00;;;10.20
60966;BMP180;46834;51.100;6.886;2023-02-11T08:28:50;102970.00;;;10.20
60966;BMP180;46834;51.100;6.886;2023-02-11T08:31:26;102972.00;;;10.10
60966;BMP180;46834;51.100;6.886;2023-02-11T08:33:53;102985.00;;;10.20
60966;BMP180;46834;51.100;6.886;2023-02-11T08:36:28;102981.00;;;10.20
60966;BMP180;46834;51.100;6.886;2023-02-11T08:38:56;102985.00;;;10.20
60966;BMP180;46834;51.100;6.886;2023-02-11T08:41:25;102987.00;;;10.20
60966;BMP180;46834;51.100;6.886;2023-02-11T08:43:50;102986.00;;;10.30
60966;BMP180;46834;51.100;6.886;2023-02-11T08:46:18;102981.00;;;10.30
60966;BMP180;46834;51.100;6.886;2023-02-11T08:48:46;102979.00;;;10.30
60966;BMP180;46834;51.100;6.886;2023-02-11T08:51:21;102993.00;;;10.30
60966;BMP180;46834;51.100;6.886;2023-02-11T08:53:48;102996.00;;;10.30
60966;BMP180;46834;51.100;6.886;2023-02-11T08:56:16;103002.00;;;10.30
60966;BMP180;46834;51.100;6.886;2023-02-11T08:58:42;103003.00;;;10.40
60966;BMP180;46834;51.100;6.886;2023-02-11T09:01:10;103009.00;;;10.40
60966;BMP180;46834;51.100;6.886;2023-02-11T09:03:36;103003.00;;;10.40
60966;BMP180;46834;51.100;6.886;2023-02-11T09:06:05;103014.00;;;10.40
60966;BMP180;46834;51.100;6.886;2023-02-11T09:08:38;103016.00;;;10.40
60966;BMP180;46834;51.100;6.886;2023-02-11T09:11:05;103024.00;;;10.40
60966;BMP180;46834;51.100;6.886;2023-02-11T09:13:32;103024.00;;;10.40
60966;BMP180;46834;51.100;6.886;2023-02-11T09:15:59;103032.00;;;10.40
60966;BMP180;46834;51.100;6.886;2023-02-11T09:18:25;103026.00;;;10.40
60966;BMP180;46834;51.100;6.886;2023-02-11T09:20:51;103017.00;;;10.40
60966;BMP180;46834;51.100;6.886;2023-02-11T09:23:17;103030.00;;;10.40
60966;BMP180;46834;51.100;6.886;2023-02-11T09:25:42;103037.00;;;10.40
60966;BMP180;46834;51.100;6.886;2023-02-11T09:28:09;103036.00;;;10.50
60966;BMP180;46834;51.100;6.886;2023-02-11T09:30:38;103037.00;;;10.50
60966;BMP180;46834;51.100;6.886;2023-02-11T09:33:03;103037.00;;;10.50
60966;BMP180;46834;51.100;6.886;2023-02-11T09:35:29;103036.00;;;10.50
60966;BMP180;46834;51.100;6.886;2023-02-11T09:37:55;103041.00;;;10.50
60966;BMP180;46834;51.100;6.886;2023-02-11T09:40:21;103043.00;;;10.50
60966;BMP180;46834;51.100;6.886;2023-02-11T09:43:01;103043.00;;;10.50
60966;BMP180;46834;51.100;6.886;2023-02-11T09:45:30;103047.00;;;10.50
60966;BMP180;46834;51.100;6.886;2023-02-11T09:48:01;103044.00;;;10.50
60966;BMP180;46834;51.100;6.886;2023-02-11T09:50:35;103047.00;;;10.50
60966;BMP180;46834;51.100;6.886;2023-02-11T09:55:45;103049.00;;;10.50
60966;BMP180;46834;51.100;6.886;2023-02-11T09:58:15;103047.00;;;10.60
60966;BMP180;46834;51.100;6.886;2023-02-11T10:06:48;103061.00;;;10.50
60966;BMP180;46834;51.100;6.886;2023-02-11T10:09:39;103065.00;;;10.50
60966;BMP180;46834;51.100;6.886;2023-02-11T10:12:44;103054.00;;;10.50
60966;BMP180;46834;51.100;6.886;2023-02-11T10:18:20;103080.00;;;10.50
60966;BMP180;46834;51.100;6.886;2023-02-11T10:23:59;103067.00;;;10.50
60966;BMP180;46834;51.100;6.886;2023-02-11T10:26:30;103066.00;;;10.60
60966;BMP180;46834;51.100;6.886;2023-02-11T10:29:01;103086.00;;;10.60
60966;BMP180;46834;51.100;6.886;2023-02-11T10:31:49;103071.00;;;10.60
60966;BMP180;46834;51.100;6.886;2023-02-11T10:34:15;103074.00;;;10.60
60966;BMP180;46834;51.100;6.886;2023-02-11T10:36:43;103077.00;;;10.70
60966;BMP180;46834;51.100;6.886;2023-02-11T10:39:19;103076.00;;;10.60
60966;BMP180;46834;51.100;6.886;2023-02-11T10:42:09;103080.00;;;10.60
60966;BMP180;46834;51.100;6.886;2023-02-11T10:44:41;103083.00;;;10.70
60966;BMP180;46834;51.100;6.886;2023-02-11T10:47:18;103083.00;;;10.70
60966;BMP180;46834;51.100;6.886;2023-02-11T10:49:46;103084.00;;;10.70
60966;BMP180;46834;51.100;6.886;2023-02-11T10:52:25;103083.00;;;10.70
60966;BMP180;46834;51.100;6.886;2023-02-11T10:57:49;103073.00;;;10.70
60966;BMP180;46834;51.100;6.886;2023-02-11T11:02:43;103075.00;;;10.80
60966;BMP180;46834;51.100;6.886;2023-02-11T11:05:19;103077.00;;;10.80
60966;BMP180;46834;51.100;6.886;2023-02-11T11:08:11;103083.00;;;10.80
60966;BMP180;46834;51.100;6.886;2023-02-11T11:10:42;103076.00;;;10.80
60966;BMP180;46834;51.100;6.886;2023-02-11T11:13:39;103081.00;;;10.80
60966;BMP180;46834;51.100;6.886;2023-02-11T11:16:18;103078.00;;;10.80
60966;BMP180;46834;51.100;6.886;2023-02-11T11:18:47;103084.00;;;10.80
60966;BMP180;46834;51.100;6.886;2023-02-11T11:21:25;103087.00;;;10.80
60966;BMP180;46834;51.100;6.886;2023-02-11T11:24:01;103079.00;;;10.80
60966;BMP180;46834;51.100;6.886;2023-02-11T11:26:43;103073.00;;;10.80
60966;BMP180;46834;51.100;6.886;2023-02-11T11:29:18;103072.00;;;10.80
60966;BMP180;46834;51.100;6.886;2023-02-11T11:31:56;103074.00;;;10.80
60966;BMP180;46834;51.100;6.886;2023-02-11T11:34:39;103065.00;;;10.80
60966;BMP180;46834;51.100;6.886;2023-02-11T11:37:23;103080.00;;;10.80
60966;BMP180;46834;51.100;6.886;2023-02-11T11:40:22;103084.00;;;10.80
60966;BMP180;46834;51.100;6.886;2023-02-11T11:43:16;103071.00;;;10.80
60966;BMP180;46834;51.100;6.886;2023-02-11T11:45:58;103078.00;;;10.90
60966;BMP180;46834;51.100;6.886;2023-02-11T11:48:34;103081.00;;;10.90
60966;BMP180;46834;51.100;6.886;2023-02-11T11:51:05;103078.00;;;10.90
60966;BMP180;46834;51.100;6.886;2023-02-11T11:56:20;103075.00;;;10.90
60966;BMP180;46834;51.100;6.886;2023-02-11T11:58:48;103069.00;;;11.00
60966;BMP180;46834;51.100;6.886;2023-02-11T12:10:55;103066.00;;;10.90
60966;BMP180;46834;51.100;6.886;2023-02-11T12:14:24;103053.00;;;10.90
60966;BMP180;46834;51.100;6.886;2023-02-11T12:17:03;103060.00;;;10.90
60966;BMP180;46834;51.100;6.886;2023-02-11T12:22:43;103053.00;;;10.90
60966;BMP180;46834;51.100;6.886;2023-02-11T12:25:21;103070.00;;;10.90
60966;BMP180;46834;51.100;6.886;2023-02-11T12:31:22;103075.00;;;10.90
60966;BMP180;46834;51.100;6.886;2023-02-11T12:37:19;103061.00;;;10.90
60966;BMP180;46834;51.100;6.886;2023-02-11T12:40:28;103062.00;;;10.90
60966;BMP180;46834;51.100;6.886;2023-02-11T12:46:09;103052.00;;;10.90
60966;BMP180;46834;51.100;6.886;2023-02-11T12:52:17;103053.00;;;10.90
60966;BMP180;46834;51.100;6.886;2023-02-11T12:55:18;103062.00;;;10.90
60966;BMP180;46834;51.100;6.886;2023-02-11T12:57:49;103060.00;;;11.00
60966;BMP180;46834;51.100;6.886;2023-02-11T13:00:50;103059.00;;;11.00
60966;BMP180;46834;51.100;6.886;2023-02-11T13:03:50;103064.00;;;11.00
60966;BMP180;46834;51.100;6.886;2023-02-11T13:06:39;103061.00;;;11.00
60966;BMP180;46834;51.100;6.886;2023-02-11T13:09:16;103047.00;;;11.00
60966;BMP180;46834;51.100;6.886;2023-02-11T13:11:49;103050.00;;;11.00
60966;BMP180;46834;51.100;6.886;2023-02-11T13:14:33;103049.00;;;11.00
60966;BMP180;46834;51.100;6.886;2023-02-11T13:17:12;103051.00;;;11.00
60966;BMP180;46834;51.100;6.886;2023-02-11T13:19:57;103040.00;;;11.00
60966;BMP180;46834;51.100;6.886;2023-02-11T13:22:55;103058.00;;;11.00
60966;BMP180;46834;51.100;6.886;2023-02-11T13:25:44;103061.00;;;11.10
60966;BMP180;46834;51.100;6.886;2023-02-11T13:28:31;103047.00;;;11.10
60966;BMP180;46834;51.100;6.886;2023-02-11T13:31:01;103046.00;;;11.10
60966;BMP180;46834;51.100;6.886;2023-02-11T13:33:36;103045.00;;;11.10
60966;BMP180;46834;51.100;6.886;2023-02-11T13:38:31;103047.00;;;11.20
60966;BMP180;46834;51.100;6.886;2023-02-11T13:41:05;103041.00;;;11.20
60966;BMP180;46834;51.100;6.886;2023-02-11T13:43:35;103052.00;;;11.20
60966;BMP180;46834;51.100;6.886;2023-02-11T13:46:12;103057.00;;;11.20
60966;BMP180;46834;51.100;6.886;2023-02-11T13:48:50;103047.00;;;11.20
60966;BMP180;46834;51.100;6.886;2023-02-11T13:51:39;103036.00;;;11.20
60966;BMP180;46834;51.100;6.886;2023-02-11T13:54:08;103049.00;;;11.30
60966;BMP180;46834;51.100;6.886;2023-02-11T13:56:43;103054.00;;;11.30
60966;BMP180;46834;51.100;6.886;2023-02-11T14:08:13;103047.00;;;11.30
60966;BMP180;46834;51.100;6.886;2023-02-11T14:21:32;103054.00;;;11.50
60966;BMP180;46834;51.100;6.886;2023-02-11T14:26:43;103046.00;;;11.50
60966;BMP180;46834;51.100;6.886;2023-02-11T14:29:24;103055.00;;;11.50
60966;BMP180;46834;51.100;6.886;2023-02-11T14:34:49;103058.00;;;11.50
60966;BMP180;46834;51.100;6.886;2023-02-11T14:37:43;103051.00;;;11.50
60966;BMP180;46834;51.100;6.886;2023-02-11T14:40:40;103057.00;;;11.60
60966;BMP180;46834;51.100;6.886;2023-02-11T14:43:23;103051.00;;;11.60
60966;BMP180;46834;51.100;6.886;2023-02-11T14:45:55;103057.00;;;11.60
60966;BMP180;46834;51.100;6.886;2023-02-11T14:48:29;103049.00;;;11.60
60966;BMP180;46834;51.100;6.886;2023-02-11T14:51:12;103050.00;;;11.60
60966;BMP180;46834;51.100;6.886;2023-02-11T14:53:46;103057.00;;;11.70
60966;BMP180;46834;51.100;6.886;2023-02-11T14:56:26;103047.00;;;11.70
60966;BMP180;46834;51.100;6.886;2023-02-11T14:58:56;103066.00;;;11.70
60966;BMP180;46834;51.100;6.886;2023-02-11T15:01:33;103072.00;;;11.70
60966;BMP180;46834;51.100;6.886;2023-02-11T15:04:02;103075.00;;;11.70
60966;BMP180;46834;51.100;6.886;2023-02-11T15:06:37;103073.00;;;11.70
60966;BMP180;46834;51.100;6.886;2023-02-11T15:09:16;103084.00;;;11.80
60966;BMP180;46834;51.100;6.886;2023-02-11T15:11:47;103067.00;;;11.80
60966;BMP180;46834;51.100;6.886;2023-02-11T15:14:25;103079.00;;;11.80
60966;BMP180;46834;51.100;6.886;2023-02-11T15:16:54;103065.00;;;11.80
60966;BMP180;46834;51.100;6.886;2023-02-11T15:19:37;103070.00;;;11.80
60966;BMP180;46834;51.100;6.886;2023-02-11T15:22:15;103071.00;;;11.80
60966;BMP180;46834;51.100;6.886;2023-02-11T15:24:43;103076.00;;;11.80
60966;BMP180;46834;51.100;6.886;2023-02-11T15:27:11;103071.00;;;11.80
60966;BMP180;46834;51.100;6.886;2023-02-11T15:29:43;103075.00;;;11.80
60966;BMP180;46834;51.100;6.886;2023-02-11T15:32:17;103067.00;;;11.80
60966;BMP180;46834;51.100;6.886;2023-02-11T15:34:45;103092.00;;;11.80
60966;BMP180;46834;51.100;6.886;2023-02-11T15:37:26;103096.00;;;11.80
60966;BMP180;46834;51.100;6.886;2023-02-11T15:40:10;103102.00;;;11.80
60966;BMP180;46834;51.100;6.886;2023-02-11T15:42:36;103103.00;;;11.80
60966;BMP180;46834;51.100;6.886;2023-02-11T15:47:48;103100.00;;;11.80
60966;BMP180;46834;51.100;6.886;2023-02-11T15:50:28;103107.00;;;11.80
60966;BMP180;46834;51.100;6.886;2023-02-11T15:53:22;103102.00;;;11.80
60966;BMP180;46834;51.100;6.886;2023-02-11T15:56:03;103089.00;;;11.80
60966;BMP180;46834;51.100;6.886;2023-02-11T15:58:36;103093.00;;;11.80
60966;BMP180;46834;51.100;6.886;2023-02-11T16:01:02;103103.00;;;11.80
60966;BMP180;46834;51.100;6.886;2023-02-11T16:03:29;103109.00;;;11.90